createdAt,value
2019-02-14T04:16:15.502Z,8.70
2019-02-14T04:18:44.483Z,8.70
2019-02-14T04:21:13.442Z,7.80
2019-02-14T04:23:42.486Z,7.90
2019-02-14T04:26:11.672Z,8.37
2019-02-14T04:28:40.695Z,8.73
2019-02-14T04:31:09.689Z,8.43
2019-02-14T04:33:38.617Z,9.53
2019-02-14T04:36:07.614Z,8.30
2019-02-14T04:38:36.585Z,7.83
2019-02-14T04:41:05.662Z,7.87
2019-02-14T04:43:34.606Z,8.30
2019-02-14T04:46:03.729Z,7.50
2019-02-14T04:48:32.728Z,8.20
2019-02-14T04:51:01.731Z,7.67
2019-02-14T04:53:30.899Z,7.70
2019-02-14T04:55:59.807Z,8.37
2019-02-14T04:58:28.846Z,7.97
2019-02-14T05:00:58.009Z,6.93
2019-02-14T05:03:27.029Z,7.07
2019-02-14T05:05:55.937Z,7.77
2019-02-14T05:08:25.017Z,7.30
2019-02-14T05:10:54.048Z,8.40
2019-02-14T05:13:23.096Z,7.47
2019-02-14T05:15:52.162Z,6.20
2019-02-14T05:18:21.074Z,6.50
2019-02-14T05:20:50.048Z,5.60
2019-02-14T05:23:19.066Z,5.23
2019-02-14T05:25:48.114Z,5.70
2019-02-14T05:28:17.103Z,5.57
2019-02-14T05:30:46.131Z,5.10
2019-02-14T05:33:15.153Z,5.07
2019-02-14T05:35:44.294Z,5.43
2019-02-14T05:38:13.242Z,5.00
2019-02-14T05:40:42.286Z,5.90
2019-02-14T05:43:11.365Z,5.20
2019-02-14T05:45:40.469Z,5.40
2019-02-14T05:48:09.446Z,5.00
2019-02-14T05:50:38.434Z,5.63
2019-02-14T05:53:07.374Z,4.70
2019-02-14T05:55:36.372Z,5.67
2019-02-14T05:58:05.382Z,4.50
2019-02-14T06:00:34.355Z,4.73
2019-02-14T06:03:03.390Z,5.17
2019-02-14T06:05:32.388Z,4.53
2019-02-14T06:08:01.467Z,6.10
2019-02-14T06:10:30.475Z,4.70
2019-02-14T06:12:59.606Z,5.60
2019-02-14T06:15:28.634Z,4.63
2019-02-14T06:17:57.630Z,4.47
2019-02-14T06:20:26.605Z,4.30
2019-02-14T06:22:55.718Z,4.57
2019-02-14T06:25:24.607Z,4.73
2019-02-14T06:27:53.550Z,4.40
2019-02-14T06:30:22.615Z,4.90
2019-02-14T06:32:51.527Z,5.03
2019-02-14T06:35:20.494Z,4.83
2019-02-14T06:37:49.491Z,5.23
2019-02-14T06:40:18.441Z,4.53
2019-02-14T06:42:47.442Z,4.90
2019-02-14T06:45:16.599Z,5.50
2019-02-14T06:47:45.655Z,4.50
2019-02-14T06:50:14.663Z,5.10
2019-02-14T06:52:43.823Z,4.60
2019-02-14T06:55:12.963Z,4.97
2019-02-14T06:57:42.336Z,4.80
2019-02-14T07:00:13.532Z,4.07
2019-02-14T07:02:42.479Z,4.53
2019-02-14T07:05:11.629Z,4.90
2019-02-14T07:07:40.960Z,3.80
2019-02-14T07:10:09.999Z,4.40
2019-02-14T07:12:39.193Z,4.10
2019-02-14T07:15:09.538Z,4.67
2019-02-14T07:17:38.653Z,5.60
2019-02-14T07:20:09.998Z,6.37
2019-02-14T07:22:39.186Z,6.73
2019-02-14T07:25:08.925Z,6.60
2019-02-14T07:27:37.983Z,6.60
2019-02-14T07:30:10.612Z,5.93
2019-02-14T07:32:39.678Z,5.57
2019-02-14T07:35:09.439Z,6.57
2019-02-14T07:37:38.539Z,6.33
2019-02-14T07:40:09.475Z,4.90
2019-02-14T07:42:38.543Z,5.60
2019-02-14T07:45:09.737Z,5.40
2019-02-14T07:47:38.812Z,5.70
2019-02-14T07:50:08.511Z,4.60
2019-02-14T07:52:37.594Z,4.87
2019-02-14T07:55:07.558Z,5.20
2019-02-14T07:57:36.626Z,5.30
2019-02-14T08:00:07.422Z,4.63
2019-02-14T08:02:36.576Z,4.80
2019-02-14T08:05:05.845Z,5.00
2019-02-14T08:07:36.180Z,4.30
2019-02-14T08:10:06.182Z,5.07
2019-02-14T08:12:35.276Z,4.83
2019-02-14T08:15:04.462Z,4.60
2019-02-14T08:17:33.558Z,5.40
2019-02-14T08:20:02.585Z,4.70
2019-02-14T08:22:31.706Z,4.57
2019-02-14T08:25:00.708Z,4.20
2019-02-14T08:27:29.778Z,4.97
2019-02-14T08:29:58.735Z,5.37
2019-02-14T08:32:27.664Z,4.40
2019-02-14T08:34:56.682Z,4.70
2019-02-14T08:37:25.716Z,3.97
2019-02-14T08:39:54.678Z,4.73
2019-02-14T08:42:23.570Z,3.33
2019-02-14T08:44:52.512Z,4.07
2019-02-14T08:47:21.596Z,4.17
2019-02-14T08:49:50.578Z,4.13
2019-02-14T08:52:19.558Z,3.80
2019-02-14T08:54:48.550Z,4.10
2019-02-14T08:57:17.463Z,4.00
2019-02-14T08:59:46.464Z,5.07
2019-02-14T09:02:15.492Z,5.30
2019-02-14T09:04:44.411Z,4.20
2019-02-14T09:07:13.405Z,4.60
2019-02-14T09:09:42.403Z,5.17
2019-02-14T09:12:11.407Z,5.10
2019-02-14T09:14:40.500Z,4.73
2019-02-14T09:17:09.512Z,5.43
2019-02-14T09:19:38.456Z,4.97
2019-02-14T09:22:08.115Z,4.77
2019-02-14T09:24:37.173Z,4.80
2019-02-14T09:27:06.315Z,5.37
2019-02-14T09:29:35.323Z,5.67
2019-02-14T09:32:04.575Z,5.70
2019-02-14T09:34:33.567Z,5.57
2019-02-14T09:37:02.633Z,5.73
2019-02-14T09:39:31.681Z,5.60
2019-02-14T09:42:00.666Z,6.70
2019-02-14T09:44:29.665Z,6.73
2019-02-14T09:46:58.753Z,6.17
2019-02-14T09:49:27.757Z,6.30
2019-02-14T09:51:59.584Z,6.90
2019-02-14T09:54:28.594Z,6.50
2019-02-14T09:56:57.587Z,6.73
2019-02-14T09:59:26.799Z,7.30
2019-02-14T10:01:55.810Z,6.37
2019-02-14T10:04:24.803Z,6.30
2019-02-14T10:06:53.926Z,6.73
2019-02-14T10:09:22.930Z,6.67
2019-02-14T10:11:52.012Z,6.83
2019-02-14T10:14:21.132Z,6.03
2019-02-14T10:16:50.080Z,7.33
2019-02-14T10:19:19.137Z,6.57
2019-02-14T10:21:48.230Z,7.47
2019-02-14T10:24:17.334Z,7.00
2019-02-14T10:26:46.331Z,6.90
2019-02-14T10:29:15.411Z,7.40
2019-02-14T10:31:44.334Z,6.50
2019-02-14T10:34:13.403Z,7.53
2019-02-14T10:36:42.530Z,7.07
2019-02-14T10:39:11.458Z,6.60
2019-02-14T10:41:40.482Z,6.73
2019-02-14T10:44:09.446Z,7.60
2019-02-14T10:46:38.450Z,7.57
2019-02-14T10:49:08.505Z,6.80
2019-02-14T10:51:37.598Z,7.43
2019-02-14T10:54:06.824Z,6.63
2019-02-14T10:56:35.919Z,7.13
2019-02-14T10:59:05.280Z,5.90
2019-02-14T11:01:36.176Z,6.30
2019-02-14T11:04:05.363Z,6.10
2019-02-14T11:06:34.431Z,6.97
2019-02-14T11:09:04.794Z,7.30
2019-02-14T11:11:33.790Z,6.90
2019-02-14T11:14:02.864Z,7.37
2019-02-14T11:16:31.815Z,5.70
2019-02-14T11:19:00.895Z,5.00
2019-02-14T11:21:29.967Z,4.40
2019-02-14T11:23:59.002Z,5.20
2019-02-14T11:26:27.988Z,4.77
2019-02-14T11:28:56.922Z,4.33
2019-02-14T11:31:26.003Z,3.80
2019-02-14T11:33:56.322Z,3.50
2019-02-14T11:36:25.312Z,4.70
2019-02-14T11:38:54.254Z,4.60
2019-02-14T11:41:23.176Z,4.20
2019-02-14T11:43:52.134Z,4.33
2019-02-14T11:46:21.126Z,4.83
2019-02-14T11:48:50.077Z,6.43
2019-02-14T11:51:19.003Z,4.07
2019-02-14T11:53:48.016Z,3.67
2019-02-14T11:56:16.997Z,4.40
2019-02-14T11:58:45.989Z,4.13
2019-02-14T12:01:15.053Z,4.03
2019-02-14T12:03:44.049Z,3.70
2019-02-14T12:06:17.581Z,4.07
2019-02-14T12:08:57.899Z,5.00
2019-02-14T12:11:14.470Z,3.90
2019-02-14T12:13:43.475Z,4.53
2019-02-14T12:16:12.536Z,3.83
2019-02-14T12:18:41.534Z,4.13
2019-02-14T12:21:10.975Z,3.17
2019-02-14T12:23:39.887Z,4.27
2019-02-14T12:26:09.081Z,4.27
2019-02-14T12:28:38.118Z,3.10
2019-02-14T12:31:07.078Z,3.47
2019-02-14T12:33:36.000Z,3.70
2019-02-14T12:36:05.146Z,2.43
2019-02-14T12:38:34.056Z,3.70
2019-02-14T12:41:03.042Z,3.70
2019-02-14T12:43:32.055Z,2.77
2019-02-14T12:46:00.959Z,2.70
2019-02-14T12:48:30.185Z,6.30
2019-02-14T12:50:59.249Z,6.73
2019-02-14T12:53:28.171Z,6.60
2019-02-14T12:55:57.218Z,6.10
2019-02-14T12:58:26.218Z,6.43
2019-02-14T13:00:55.214Z,6.13
2019-02-14T13:03:24.196Z,6.07
2019-02-14T13:05:53.290Z,6.80
2019-02-14T13:08:22.279Z,6.97
2019-02-14T13:10:51.200Z,6.03
2019-02-14T13:13:20.130Z,7.27
2019-02-14T13:15:49.130Z,7.07
2019-02-14T13:18:18.121Z,6.33
2019-02-14T13:20:47.152Z,7.07
2019-02-14T13:23:16.285Z,6.37
2019-02-14T13:25:45.342Z,6.50
2019-02-14T13:28:14.453Z,7.47
2019-02-14T13:30:43.449Z,6.40
2019-02-14T13:33:12.934Z,6.40
2019-02-14T13:35:42.042Z,5.70
2019-02-14T13:38:11.145Z,6.47
2019-02-14T13:40:40.195Z,5.97
2019-02-14T13:43:10.418Z,5.63
2019-02-14T13:45:39.674Z,5.20
2019-02-14T13:48:08.951Z,6.10
2019-02-14T13:50:38.571Z,5.97
2019-02-14T13:53:07.687Z,6.70
2019-02-14T13:55:36.661Z,5.90
2019-02-14T13:58:05.718Z,6.47
2019-02-14T14:00:34.995Z,5.67
2019-02-14T14:03:04.742Z,5.27
2019-02-14T14:05:33.987Z,5.47
2019-02-14T14:08:02.884Z,6.17
2019-02-14T14:10:31.970Z,6.17
2019-02-14T14:13:00.919Z,5.50
2019-02-14T14:15:29.823Z,5.20
2019-02-14T14:17:58.791Z,5.07
2019-02-14T14:20:27.803Z,6.50
2019-02-14T14:22:56.821Z,4.50
2019-02-14T14:25:25.859Z,5.60
2019-02-14T14:27:54.894Z,5.63
2019-02-14T14:30:23.882Z,5.80
2019-02-14T14:32:52.854Z,5.80
2019-02-14T14:35:21.800Z,6.07
2019-02-14T14:37:50.734Z,5.10
2019-02-14T14:40:20.443Z,5.40
2019-02-14T14:43:08.682Z,6.00
2019-02-14T14:45:57.363Z,5.67
2019-02-14T14:48:29.454Z,6.00
2019-02-14T14:50:58.369Z,5.63
2019-02-14T14:53:27.518Z,5.77
2019-02-14T14:55:56.550Z,5.70
2019-02-14T14:58:25.538Z,5.40
2019-02-14T15:00:54.826Z,5.40
2019-02-14T15:03:23.810Z,5.77
2019-02-14T15:05:52.838Z,5.87
2019-02-14T15:08:21.915Z,5.53
2019-02-14T15:10:50.862Z,6.50
2019-02-14T15:13:19.787Z,5.80
2019-02-14T15:15:48.821Z,6.03
2019-02-14T15:18:17.835Z,6.03
2019-02-14T15:20:46.921Z,6.73
2019-02-14T15:23:15.851Z,6.23
2019-02-14T15:25:44.903Z,5.00
2019-02-14T15:28:13.846Z,5.67
2019-02-14T15:30:42.880Z,6.20
2019-02-14T15:33:12.074Z,5.10
2019-02-14T15:35:41.070Z,5.33
2019-02-14T15:38:11.898Z,4.63
2019-02-14T15:40:40.719Z,4.87
2019-02-14T15:43:09.789Z,4.30
2019-02-14T15:45:38.791Z,3.90
2019-02-14T15:48:07.906Z,4.30
2019-02-14T15:50:36.907Z,4.30
2019-02-14T15:53:07.578Z,4.40
2019-02-14T15:55:38.859Z,3.83
2019-02-14T15:58:09.275Z,4.17
2019-02-14T16:00:38.365Z,4.07
2019-02-14T16:03:07.545Z,4.33
2019-02-14T16:05:38.065Z,4.10
2019-02-14T16:08:07.248Z,4.70
2019-02-14T16:10:36.287Z,4.20
2019-02-14T16:13:07.111Z,4.97
2019-02-14T16:15:36.027Z,5.73
2019-02-14T16:18:05.567Z,4.73
2019-02-14T16:20:34.481Z,5.47
2019-02-14T16:23:04.209Z,5.33
2019-02-14T16:25:34.401Z,5.27
2019-02-14T16:28:03.417Z,6.23
2019-02-14T16:30:33.328Z,6.20
2019-02-14T16:33:02.438Z,5.93
2019-02-14T16:35:31.390Z,6.40
2019-02-14T16:38:00.472Z,7.10
2019-02-14T16:40:38.275Z,7.50
2019-02-14T16:43:00.237Z,6.83
2019-02-14T16:45:29.145Z,6.23
2019-02-14T16:47:58.161Z,6.67
2019-02-14T16:50:27.239Z,6.80
2019-02-14T16:52:56.360Z,7.20
2019-02-14T16:55:25.306Z,6.43
2019-02-14T16:57:54.372Z,8.40
2019-02-14T17:00:23.549Z,6.60
2019-02-14T17:02:52.619Z,7.63
2019-02-14T17:05:21.737Z,6.70
2019-02-14T17:07:50.723Z,6.40
2019-02-14T17:10:20.017Z,7.50
2019-02-14T17:12:49.016Z,7.40
2019-02-14T17:15:18.100Z,8.30
2019-02-14T17:17:47.116Z,7.10
2019-02-14T17:20:16.117Z,8.30
2019-02-14T17:22:45.040Z,7.20
2019-02-14T17:25:13.992Z,7.40
2019-02-14T17:27:42.908Z,8.13
2019-02-14T17:30:11.922Z,7.73
2019-02-14T17:32:41.127Z,7.67
2019-02-14T17:35:10.210Z,7.00
2019-02-14T17:37:39.126Z,7.80
2019-02-14T17:40:08.610Z,7.63
2019-02-14T17:42:37.602Z,7.43
2019-02-14T17:45:08.393Z,7.20
2019-02-14T17:47:37.571Z,6.93
2019-02-14T17:50:06.794Z,7.37
2019-02-14T17:52:35.890Z,7.57
2019-02-14T17:55:05.166Z,7.60
2019-02-14T17:57:34.134Z,7.27
2019-02-14T18:00:03.474Z,7.93
2019-02-14T18:02:32.478Z,9.13
2019-02-14T18:05:01.411Z,8.10
2019-02-14T18:07:30.525Z,7.60
2019-02-14T18:09:59.586Z,9.07
2019-02-14T18:12:28.584Z,9.00
2019-02-14T18:14:58.263Z,9.13
2019-02-14T18:17:27.267Z,9.80
2019-02-14T18:19:56.384Z,8.30
2019-02-14T18:22:26.478Z,8.90
2019-02-14T18:24:55.504Z,8.10
2019-02-14T18:27:24.714Z,8.83
2019-02-14T18:29:53.878Z,8.97
2019-02-14T18:32:22.838Z,8.20
2019-02-14T18:34:51.886Z,8.37
2019-02-14T18:37:20.827Z,8.20
2019-02-14T18:39:49.845Z,8.00
2019-02-14T18:42:18.847Z,7.20
2019-02-14T18:44:47.908Z,8.73
2019-02-14T18:47:16.885Z,7.40
2019-02-14T18:49:46.032Z,8.23
2019-02-14T18:52:15.151Z,8.37
2019-02-14T18:54:44.088Z,8.07
2019-02-14T18:57:13.124Z,9.10
2019-02-14T18:59:42.198Z,8.40
2019-02-14T19:02:11.166Z,7.60
2019-02-14T19:04:40.162Z,8.57
2019-02-14T19:07:09.170Z,8.70
2019-02-14T19:09:38.123Z,8.47
2019-02-14T19:12:07.690Z,9.33
2019-02-14T19:14:36.732Z,9.83
2019-02-14T19:17:05.899Z,8.80
2019-02-14T19:19:34.921Z,9.13
2019-02-14T19:22:03.917Z,9.00
2019-02-14T19:24:32.911Z,9.13
2019-02-14T19:27:01.848Z,8.37
2019-02-14T19:29:30.806Z,9.93
2019-02-14T19:32:00.020Z,8.23
2019-02-14T19:34:28.935Z,8.97
2019-02-14T19:36:57.870Z,8.77
2019-02-14T19:39:27.085Z,9.27
2019-02-14T19:41:56.067Z,9.13
2019-02-14T19:44:25.047Z,9.43
2019-02-14T19:46:54.162Z,10.03
2019-02-14T19:49:23.142Z,11.77
2019-02-14T19:51:52.145Z,12.00
2019-02-14T19:54:21.177Z,12.27
2019-02-14T19:56:50.242Z,12.00
2019-02-14T19:59:19.636Z,11.80
2019-02-14T20:01:49.900Z,13.43
2019-02-14T20:04:18.905Z,12.20
2019-02-14T20:06:47.918Z,12.70
2019-02-14T20:09:17.074Z,12.10
2019-02-14T20:11:46.078Z,11.57
2019-02-14T20:14:15.161Z,12.97
2019-02-14T20:16:44.270Z,13.10
2019-02-14T20:19:13.317Z,13.70
2019-02-14T20:21:42.279Z,13.50
2019-02-14T20:24:11.226Z,14.03
2019-02-14T20:26:40.148Z,13.80
2019-02-14T20:29:09.086Z,14.10
2019-02-14T20:31:38.146Z,13.10
2019-02-14T20:34:07.090Z,12.50
2019-02-14T20:36:36.018Z,13.30
2019-02-14T20:39:06.053Z,11.47
2019-02-14T20:41:35.203Z,12.87
2019-02-14T20:44:04.289Z,13.30
2019-02-14T20:46:33.489Z,12.20
2019-02-14T20:49:02.571Z,11.90
2019-02-14T20:51:38.357Z,11.93
2019-02-14T20:54:02.302Z,12.33
2019-02-14T20:56:31.377Z,11.43
2019-02-14T20:59:00.409Z,12.20
2019-02-14T21:01:29.894Z,12.27
2019-02-14T21:03:58.908Z,13.03
2019-02-14T21:06:27.945Z,13.87
2019-02-14T21:08:57.123Z,13.30
2019-02-14T21:11:26.208Z,11.67
2019-02-14T21:13:55.191Z,11.40
2019-02-14T21:16:24.127Z,13.20
2019-02-14T21:18:53.217Z,13.33
2019-02-14T21:21:22.365Z,12.57
2019-02-14T21:23:51.384Z,13.30
2019-02-14T21:26:20.374Z,12.87
2019-02-14T21:28:49.388Z,11.83
2019-02-14T21:31:18.508Z,12.63
2019-02-14T21:33:47.572Z,11.73
2019-02-14T21:36:16.715Z,11.60
2019-02-14T21:38:45.976Z,11.70
2019-02-14T21:41:15.133Z,12.70
2019-02-14T21:43:44.249Z,13.23
2019-02-14T21:46:13.433Z,11.90
2019-02-14T21:48:42.551Z,11.70
2019-02-14T21:51:11.628Z,12.43
2019-02-14T21:53:40.727Z,10.40
2019-02-14T21:56:09.927Z,12.27
2019-02-14T21:58:39.004Z,12.00
2019-02-14T22:01:08.768Z,11.23
2019-02-14T22:03:37.810Z,12.07
2019-02-14T22:06:06.994Z,12.13
2019-02-14T22:08:36.109Z,12.63
2019-02-14T22:11:05.499Z,12.40
2019-02-14T22:13:34.483Z,12.43
2019-02-14T22:16:03.731Z,13.23
2019-02-14T22:18:32.862Z,12.00
2019-02-14T22:21:01.846Z,12.07
2019-02-14T22:23:30.930Z,12.40
2019-02-14T22:25:59.992Z,12.40
2019-02-14T22:28:28.920Z,10.47
2019-02-14T22:30:57.877Z,11.83
2019-02-14T22:33:26.859Z,11.10
2019-02-14T22:35:55.811Z,13.40
2019-02-14T22:38:24.759Z,10.23
2019-02-14T22:40:53.817Z,11.37
2019-02-14T22:43:23.663Z,12.17
2019-02-14T22:45:52.695Z,11.80
2019-02-14T22:48:21.677Z,11.20
2019-02-14T22:50:50.798Z,10.57
2019-02-14T22:53:19.826Z,8.70
2019-02-14T22:55:48.768Z,9.40
2019-02-14T22:58:17.722Z,9.57
2019-02-14T23:00:55.955Z,9.60
2019-02-14T23:03:25.333Z,10.57
2019-02-14T23:05:54.339Z,11.40
2019-02-14T23:08:23.368Z,12.20
2019-02-14T23:10:52.392Z,11.30
2019-02-14T23:13:21.399Z,10.60
2019-02-14T23:15:50.531Z,11.63
2019-02-14T23:18:19.541Z,11.10
2019-02-14T23:20:48.675Z,11.23
2019-02-14T23:23:17.695Z,10.63
2019-02-14T23:25:46.787Z,9.80
2019-02-14T23:28:15.701Z,8.37
